EDDL

Düsseldorf International Airport

Düsseldorf, Germany
METAR EDDL 231350Z 06013KT 030V090 CAVOK 03/M09 Q1021 NOSIG
Observed Flight Rules
Feb-23 @ 13:50 UTC (36 minutes ago) Visual Flight Rules
Wind Visibility Clouds
60° at 13 knots 10,000+ meters
  • Clear skies
Temperatures Readings
Current 3°C / 37°F
Dewpoint -9°C / 16°F
Humidity 41%
Altimeter 30.15" Hg
Pressure 1021 hPa
Elevation 44
METAR EDDL 231350Z 06013KT 030V090 CAVOK 03/M09 Q1021 NOSIG
Observed Flight Rules
Feb-23 @ 13:50 UTC
(36 minutes ago)
VFR
Wind Visibility
60° at 13 knots 10,000+ meters
Clouds
  • Clear skies
Temperature Dewpoint
3°C / 37°F -9°C / 16°F
Humidity Altimeter Pressure
41% 30.15" Hg 1021 hPa